»·PEaware :: N47508 KSBP-KSMX

N47508 :: KSBP-KSMX

FLIGHT INFORMATION

Flight Status: Arrived
Operator: Privately registered:
United States
More flights under this callsign
Pilot: Aaron H. (23273)
Aircraft: PIPER PA-28 CHEROKEE ARCHER
(P28A)
More flights by this aircraft type
Origin: KSBP San Luis Co Regl
United States
Destination: KSMX Santa Maria Pub/Capt Hancock
United States
More flights between these airports :: More routes between these airports
Route:
File this flight plan on PilotEdge
Remarks: Getting there - Thanks for the help from the UK!
Altitude:
(Current/Filed)
7,500ft
Speed:
(Current/Filed)
115kts
Departed: 08-Feb-19 04:45 PM
Arrived: 08-Feb-19 05:12 PM
Distance/Time
Traveled:
21nm/0:27
Distance/Time
To Go:
Arrived

Flight Plot

Page will automatically refresh every two minutes.


Map Options




Map Legend


Flown Route
Filed Route
Departure Airport
Arrival Airport
Navaid (VOR, NDB)
Fix

Horizontal Profiles

Position Reports

Time Latitude Longitude Heading Altitude Ground
Speed
08-Feb-19 16:36 35.235520 -120.635124 64 215ft 0kts
08-Feb-19 16:37 35.235520 -120.635124 64 215ft 0kts
08-Feb-19 16:38 35.235520 -120.635124 64 215ft 0kts
08-Feb-19 16:39 35.235417 -120.635306 222 215ft 5kts
08-Feb-19 16:40 35.237300 -120.639048 305 215ft 17kts
08-Feb-19 16:41 35.240037 -120.643819 306 215ft 13kts
08-Feb-19 16:42 35.241618 -120.646643 306 215ft 13kts
08-Feb-19 16:43 35.242534 -120.648330 314 215ft 9kts
08-Feb-19 16:44 35.241626 -120.648539 124 215ft 25kts
08-Feb-19 16:45 35.228096 -120.630680 157 735ft 90kts
08-Feb-19 16:46 35.207922 -120.620620 155 1144ft 101kts
08-Feb-19 16:47 35.184725 -120.610916 159 1387ft 109kts
08-Feb-19 16:48 35.160538 -120.600973 157 1682ft 106kts
08-Feb-19 16:49 35.134505 -120.588502 166 2224ft 101kts
08-Feb-19 16:50 35.112176 -120.577832 135 2910ft 98kts
08-Feb-19 16:51 35.092073 -120.562303 175 3415ft 109kts
08-Feb-19 16:52 35.068188 -120.552348 148 3763ft 103kts
08-Feb-19 16:52 35.049760 -120.537243 149 4025ft 106kts
08-Feb-19 16:54 35.021132 -120.522694 140 3993ft 94kts
08-Feb-19 16:55 34.999820 -120.507556 170 3845ft 93kts
08-Feb-19 16:55 34.977716 -120.509861 189 3732ft 93kts
08-Feb-19 16:56 34.955755 -120.515763 183 3851ft 75kts
08-Feb-19 16:58 34.938686 -120.497826 111 3963ft 73kts
08-Feb-19 16:59 34.922144 -120.498169 230 3590ft 99kts
08-Feb-19 16:59 34.909299 -120.513931 213 2922ft 84kts
08-Feb-19 17:00 34.888964 -120.515157 149 3142ft 72kts
08-Feb-19 17:01 34.898097 -120.511960 325 3106ft 67kts
08-Feb-19 17:02 34.911989 -120.525784 322 3170ft 74kts
08-Feb-19 17:03 34.929423 -120.531494 318 3199ft 77kts
08-Feb-19 17:04 34.943728 -120.533573 121 3086ft 82kts
08-Feb-19 17:05 34.925931 -120.518230 151 2623ft 85kts
08-Feb-19 17:06 34.913773 -120.501291 103 2112ft 87kts
08-Feb-19 17:07 34.897655 -120.482921 135 1697ft 84kts
08-Feb-19 17:08 34.884129 -120.465113 122 1379ft 83kts
08-Feb-19 17:09 34.875205 -120.443932 16 1048ft 73kts
08-Feb-19 17:10 34.889362 -120.441919 317 474ft 73kts
08-Feb-19 17:11 34.897796 -120.450244 2 264ft 5kts
08-Feb-19 17:12 34.898307 -120.450244 1 264ft 5kts
08-Feb-19 17:13 34.899994 -120.451352 56 264ft 16kts
08-Feb-19 17:14 34.900431 -120.450628 318 264ft 0kts
08-Feb-19 17:15 34.900431 -120.450628 318 264ft 0kts
08-Feb-19 17:16 34.900431 -120.450628 318 264ft 0kts
08-Feb-19 17:17 34.900576 -120.450803 313 264ft 0kts
08-Feb-19 17:18 34.900576 -120.450803 313 264ft 0kts
08-Feb-19 17:19 34.900576 -120.450803 313 264ft 0kts
08-Feb-19 17:20 34.900576 -120.450803 314 264ft 0kts
08-Feb-19 17:21 34.898785 -120.450559 136 264ft 14kts
08-Feb-19 17:22 34.895683 -120.446752 135 264ft 15kts
08-Feb-19 17:23 34.893739 -120.445653 182 264ft 0kts
08-Feb-19 17:24 34.897046 -120.450938 314 322ft 79kts
08-Feb-19 17:25 34.912770 -120.468182 328 1018ft 92kts

Navigation Log

Ident Type
Flight plan parsing failed, navigation log unavailable